メインページ
METAR-TAF:

METAR-TAF

空港 :

インディアナポリス, インディアナ州, アメリカ合衆国

インディアナポリス国際空港

緯度: 39-43-30N, 経度: 086-16-55W, 海抜: 243m

現時点の気象観測

当レポートは27分前の12:54(UTC)に作成
無風
気温 21°C
湿度 64%
気圧 1018 hPa
視程: 16.1km
高度18000ftの雲はほとんどない
高度30000ftの千切れ雲あり

METAR: KIND 251254Z 00000KT 10SM FEW180 BKN300 21/14 A3006 RMK AO2 SLP171 T02110144

時間: 09:21 (13:21 UTC)

予報

当レポートは1時間59分前の11:22(UTC)に作成
予報は25日の 12時(UTC)から 26日の 18時(UTC)まで有効
の風 kt
視程: 10km
高度5000ftの雲はほとんどない
高度25000ftの雲はほとんどない

TAF: KIND 251122Z 2512/2618 00000KT P6SM FEW050 FEW250

4,000以上の空港の気象観測と天気予報(METAR報とTAF報)

利用可能な観測所は地図上に黄色い丸と赤い丸で示す。

丸の上にカーソルを重ねると観測所名を参照できる。

次にクリックすると気象観測と天気予報を参照できる。

マップの切り替え:黒色「×」印の緑ボタンをクリックして拡大、「-」印の緑ボタンをクリックして縮小、緑色の三角印をクリックして隣りの地図に切り替え


METAR-TAF: